Time;durP1;ratioP1;P1;durP2;ratioP2;P2;SDS_P1;SDS_P2;PMS_P1;PMS_P2;Temp;Humidity;BMP_temperature;BMP_pressure;BME280_temperature;BME280_humidity;BME280_pressure;Samples;Min_cycle;Max_cycle;Signal;HPM_P1;HPM_P2
2022/06/02 00:01:55;;;;;;;9.47;8.77;;;;;;;8.68;91.97;101586.53;5014446;28;20441;-47
2022/06/02 00:04:29;;;;;;;9.93;9.33;;;;;;;8.63;91.67;101585.34;5014856;28;20429;-46
2022/06/02 00:07:05;;;;;;;10.67;9.93;;;;;;;8.56;92.08;101593.13;5014429;28;20464;-46
2022/06/02 00:09:48;;;;;;;9.83;8.90;;;;;;;8.54;92.72;101588.97;5014692;28;20463;-43
2022/06/02 00:12:25;;;;;;;9.33;8.83;;;;;;;8.52;92.54;101596.28;5014552;28;20445;-50
2022/06/02 00:15:01;;;;;;;9.60;8.90;;;;;;;8.49;92.59;101580.66;5014801;28;20432;-46
2022/06/02 00:17:39;;;;;;;9.40;8.80;;;;;;;8.48;92.79;101585.16;5014140;28;20469;-49
2022/06/02 00:20:13;;;;;;;9.63;9.13;;;;;;;8.44;93.14;101573.19;5014533;28;20435;-45
2022/06/02 00:22:49;;;;;;;9.50;8.90;;;;;;;8.41;92.94;101576.16;5014614;28;20425;-43
2022/06/02 00:25:31;;;;;;;10.93;10.20;;;;;;;8.38;93.40;101576.47;5014630;28;20973;-42
2022/06/02 00:28:06;;;;;;;10.33;9.40;;;;;;;8.37;93.52;101577.47;5013930;28;20468;-46
2022/06/02 00:30:40;;;;;;;9.90;9.20;;;;;;;8.36;93.95;101577.63;5014428;28;20433;-45
2022/06/02 00:33:21;;;;;;;10.60;9.90;;;;;;;8.33;93.75;101571.63;5014488;28;20536;-44
2022/06/02 00:35:53;;;;;;;10.40;9.73;;;;;;;8.35;94.13;101574.16;4994040;28;20517;-47
2022/06/02 00:38:29;;;;;;;11.20;10.60;;;;;;;8.32;94.33;101585.09;4994632;28;20520;-46
2022/06/02 00:41:11;;;;;;;10.20;9.47;;;;;;;8.29;94.46;101583.59;4994522;28;20947;-42
2022/06/02 00:43:56;;;;;;;10.40;9.80;;;;;;;8.27;94.63;101579.41;4994524;28;20445;-43
2022/06/02 00:46:31;;;;;;;9.60;9.00;;;;;;;8.25;95.48;101579.56;4993900;28;20994;-44
2022/06/02 00:49:10;;;;;;;9.80;9.30;;;;;;;8.22;95.67;101576.38;4994477;28;20434;-46
2022/06/02 00:51:48;;;;;;;9.63;8.90;;;;;;;8.23;95.97;101589.53;4994416;28;20442;-43
2022/06/02 00:57:31;;;;;;;9.30;8.80;;;;;;;8.22;96.47;101587.00;4993945;28;20472;-44
2022/06/02 01:00:12;;;;;;;9.60;9.00;;;;;;;8.23;96.32;101589.53;4994503;28;20465;-43
2022/06/02 01:02:46;;;;;;;9.87;9.17;;;;;;;8.19;96.99;101598.78;4994543;28;20445;-43
2022/06/02 01:05:18;;;;;;;8.70;8.30;;;;;;;8.23;97.03;101600.16;4993606;28;20553;-46
2022/06/02 01:07:59;;;;;;;9.57;8.87;;;;;;;8.23;96.71;101597.50;4993539;28;20481;-42
2022/06/02 01:10:42;;;;;;;9.40;8.80;;;;;;;8.23;96.85;101588.69;4994171;28;20432;-46
2022/06/02 01:13:23;;;;;;;9.00;8.37;;;;;;;8.23;96.78;101594.00;4994368;28;20448;-44
2022/06/02 01:16:06;;;;;;;8.27;7.87;;;;;;;8.25;96.92;101592.00;4993812;28;21133;-45
2022/06/02 01:18:45;;;;;;;9.97;9.17;;;;;;;8.25;96.62;101599.97;4994147;28;20456;-45
2022/06/02 01:21:37;;;;;;;9.30;8.63;;;;;;;8.25;97.07;101599.97;4993824;28;20811;-45
2022/06/02 01:24:44;;;;;;;9.37;8.50;;;;;;;8.26;97.04;101594.50;4993911;28;20434;-43
2022/06/02 01:27:33;;;;;;;8.70;8.30;;;;;;;8.28;97.20;101602.34;4994009;28;20843;-45
2022/06/02 01:30:18;;;;;;;9.03;8.50;;;;;;;8.29;96.89;101602.19;4991647;28;20990;-44
2022/06/02 01:32:55;;;;;;;9.70;9.10;;;;;;;8.32;97.12;101598.38;5008515;28;20433;-48
2022/06/02 01:35:32;;;;;;;8.73;8.33;;;;;;;8.34;97.40;101599.03;5013259;28;20440;-47
2022/06/02 01:38:05;;;;;;;8.50;7.87;;;;;;;8.34;97.06;101599.88;5012664;28;20469;-43
2022/06/02 01:40:40;;;;;;;8.53;8.13;;;;;;;8.38;97.49;101589.78;5012972;28;20931;-43
2022/06/02 01:43:15;;;;;;;8.90;8.40;;;;;;;8.42;97.23;101592.94;5013037;28;20954;-45
2022/06/02 01:46:15;;;;;;;8.87;8.10;;;;;;;8.45;97.35;101601.44;5012860;28;20473;-46
2022/06/02 01:48:57;;;;;;;9.50;8.70;;;;;;;8.51;97.25;101594.63;5013003;28;20445;-45
2022/06/02 01:51:34;;;;;;;8.63;8.23;;;;;;;8.55;97.79;101598.59;5012710;28;20441;-44
2022/06/02 01:54:11;;;;;;;8.93;8.33;;;;;;;8.60;97.69;101598.97;5013148;28;20424;-45
2022/06/02 01:56:53;;;;;;;7.93;7.53;;;;;;;8.63;97.44;101599.44;5012396;28;20468;-46
2022/06/02 01:59:44;;;;;;;8.30;7.90;;;;;;;8.69;97.61;101596.13;5012819;28;20906;-45
2022/06/02 02:02:20;;;;;;;8.17;7.70;;;;;;;8.77;97.37;101595.34;5012750;28;20464;-50
2022/06/02 02:05:15;;;;;;;8.57;8.17;;;;;;;8.87;97.60;101591.50;5012913;28;20428;-46
2022/06/02 02:07:55;;;;;;;7.90;7.40;;;;;;;8.92;97.19;101599.00;5012029;28;20469;-43
2022/06/02 02:10:32;;;;;;;8.23;7.77;;;;;;;8.99;97.54;101604.50;5012381;28;20410;-43
2022/06/02 02:13:12;;;;;;;8.00;7.60;;;;;;;9.05;97.34;101602.00;5012961;28;20440;-47
2022/06/02 02:15:48;;;;;;;7.53;7.23;;;;;;;9.11;96.94;101592.56;5011668;28;20425;-46
2022/06/02 02:18:28;;;;;;;8.37;7.90;;;;;;;9.17;97.06;101600.66;5012369;28;20835;-46
2022/06/02 02:21:15;;;;;;;8.30;7.90;;;;;;;9.21;96.62;101601.19;5012390;28;20940;-45
2022/06/02 02:23:53;;;;;;;8.80;8.37;;;;;;;9.21;96.42;101588.72;5012577;28;20435;-48
2022/06/02 02:26:27;;;;;;;9.27;8.67;;;;;;;9.26;96.36;101602.34;5011889;28;20826;-45
2022/06/02 02:29:01;;;;;;;8.87;8.10;;;;;;;9.30;96.09;101598.34;5012246;28;20429;-47
2022/06/02 02:31:39;;;;;;;8.30;7.90;;;;;;;9.34;96.02;101599.69;5012173;28;20451;-48
2022/06/02 02:34:23;;;;;;;8.57;8.07;;;;;;;9.37;96.17;101598.53;5012511;28;20425;-43
2022/06/02 02:36:59;;;;;;;8.97;8.30;;;;;;;9.41;95.89;101600.66;5011648;28;20468;-48
2022/06/02 02:39:39;;;;;;;9.93;9.33;;;;;;;9.48;96.44;101600.00;5012177;28;20425;-43
2022/06/02 02:42:14;;;;;;;9.50;8.90;;;;;;;9.49;96.25;101599.00;5012161;28;20448;-48
2022/06/02 02:44:53;;;;;;;11.43;8.97;;;;;;;9.53;96.63;101611.00;5012238;28;20780;-45
2022/06/02 02:47:24;;;;;;;9.00;8.50;;;;;;;9.56;96.66;101602.66;5011615;28;20469;-44
2022/06/02 02:49:57;;;;;;;10.03;9.03;;;;;;;9.60;96.83;101598.63;5011967;28;20437;-45
2022/06/02 02:52:35;;;;;;;9.30;8.63;;;;;;;9.63;96.77;101604.47;5012218;28;20439;-43
2022/06/02 02:55:10;;;;;;;9.90;9.20;;;;;;;9.65;97.15;101613.09;5012249;28;20436;-48
2022/06/02 02:57:48;;;;;;;10.50;9.90;;;;;;;9.66;97.03;101611.28;5011739;28;20460;-43
2022/06/02 03:00:20;;;;;;;10.33;9.67;;;;;;;9.69;97.04;101603.78;5011711;28;20444;-46
2022/06/02 03:02:58;;;;;;;9.73;9.07;;;;;;;9.69;97.23;101610.94;5012184;28;20440;-47
2022/06/02 03:05:29;;;;;;;10.80;10.10;;;;;;;9.70;97.43;101612.63;5012132;28;20491;-45
2022/06/02 03:08:07;;;;;;;10.47;9.60;;;;;;;9.74;97.57;101608.59;5011540;28;20473;-48
2022/06/02 03:10:38;;;;;;;10.03;9.20;;;;;;;9.78;97.63;101608.09;5011768;28;20439;-51
2022/06/02 03:13:33;;;;;;;10.90;9.80;;;;;;;9.80;97.71;101607.91;5012084;28;20447;-46
2022/06/02 03:16:06;;;;;;;10.87;9.03;;;;;;;9.82;97.81;101608.59;5010025;28;20467;-44
2022/06/02 03:18:57;;;;;;;9.97;9.40;;;;;;;9.86;97.92;101605.41;5012052;28;20456;-48
2022/06/02 03:21:33;;;;;;;10.03;9.20;;;;;;;9.89;97.92;101617.53;5011697;28;20429;-47
2022/06/02 03:24:32;;;;;;;11.47;10.67;;;;;;;9.93;98.17;101606.41;5011911;28;20516;-45
2022/06/02 03:27:14;;;;;;;11.03;8.70;;;;;;;9.96;98.05;101611.38;5012113;28;20820;-45
2022/06/02 03:29:55;;;;;;;9.83;9.23;;;;;;;9.99;98.07;101612.88;5016024;28;20428;-47
2022/06/02 03:32:36;;;;;;;10.47;9.77;;;;;;;10.02;98.24;101616.03;5015308;28;20443;-43
2022/06/02 03:35:13;;;;;;;10.23;9.60;;;;;;;10.06;98.19;101611.19;5015463;28;20927;-47
2022/06/02 03:37:52;;;;;;;11.67;10.63;;;;;;;10.09;98.28;101618.84;5014725;28;20468;-43
2022/06/02 03:40:34;;;;;;;9.57;8.97;;;;;;;10.14;98.13;101616.50;5015441;28;20799;-43
2022/06/02 03:43:12;;;;;;;9.33;8.73;;;;;;;10.19;98.08;101616.81;5015139;28;20946;-43
2022/06/02 03:45:52;;;;;;;9.57;8.77;;;;;;;10.22;98.21;101611.13;5014053;28;20925;-46
2022/06/02 03:48:33;;;;;;;10.40;9.70;;;;;;;10.25;98.09;101605.47;5013685;28;20500;-45
2022/06/02 03:51:15;;;;;;;10.90;9.80;;;;;;;10.30;98.00;101610.28;5012870;28;20445;-46
2022/06/02 03:53:57;;;;;;;9.57;8.70;;;;;;;10.35;97.83;101613.25;5014733;28;20448;-47
2022/06/02 03:56:40;;;;;;;9.73;8.83;;;;;;;10.38;97.84;101610.25;5014666;28;20468;-46
2022/06/02 03:59:25;;;;;;;11.20;10.40;;;;;;;10.41;97.80;101612.56;5014982;28;20434;-45
2022/06/02 04:02:00;;;;;;;9.60;8.80;;;;;;;10.46;97.77;101613.69;5014730;28;20441;-43
2022/06/02 04:04:39;;;;;;;8.90;8.50;;;;;;;10.51;97.56;101619.31;5014925;28;20917;-44
2022/06/02 04:07:29;;;;;;;10.03;9.23;;;;;;;10.56;97.45;101616.16;5014497;28;20791;-43
2022/06/02 04:10:07;;;;;;;11.00;10.10;;;;;;;10.61;97.64;101619.13;5014983;28;20436;-48
2022/06/02 04:16:05;;;;;;;9.40;8.90;;;;;;;10.77;97.40;101624.38;5014341;28;20433;-45
2022/06/02 04:18:44;;;;;;;9.73;8.87;;;;;;;10.83;97.61;101622.81;5014466;28;20426;-46
2022/06/02 04:21:21;;;;;;;9.43;8.60;;;;;;;10.85;97.74;101628.81;5014629;28;20440;-48
2022/06/02 04:24:00;;;;;;;9.23;8.47;;;;;;;10.88;97.81;101634.63;5014515;28;20436;-47
2022/06/02 04:26:45;;;;;;;9.80;9.30;;;;;;;10.87;97.90;101629.47;5014082;28;20464;-45
2022/06/02 04:29:26;;;;;;;10.43;8.70;;;;;;;10.88;97.75;101637.28;5014564;28;20791;-43
2022/06/02 04:32:03;;;;;;;9.53;8.60;;;;;;;10.89;97.86;101640.78;5013773;28;20441;-46
2022/06/02 04:34:45;;;;;;;9.37;8.43;;;;;;;10.92;97.44;101635.09;5014389;28;20484;-43
2022/06/02 04:37:20;;;;;;;9.70;8.80;;;;;;;10.96;97.29;101633.75;5013776;28;20468;-49
2022/06/02 04:39:56;;;;;;;9.20;8.60;;;;;;;10.97;97.02;101635.38;5013276;28;20825;-42
2022/06/02 04:42:38;;;;;;;8.73;8.27;;;;;;;10.97;96.99;101633.56;5014187;28;20433;-48
2022/06/02 04:45:19;;;;;;;10.07;9.20;;;;;;;11.06;96.66;101637.00;5014122;28;20429;-50
2022/06/02 04:47:58;;;;;;;9.73;9.13;;;;;;;11.14;96.56;101638.78;5013391;28;20481;-47
2022/06/02 04:50:35;;;;;;;10.23;9.33;;;;;;;11.24;96.34;101642.88;5013820;28;20965;-43
2022/06/02 04:53:14;;;;;;;10.13;9.10;;;;;;;11.36;96.36;101635.25;5014242;28;20459;-43
2022/06/02 04:55:53;;;;;;;10.47;9.67;;;;;;;11.46;96.61;101638.53;5014041;28;20802;-45
2022/06/02 04:58:26;;;;;;;10.23;9.37;;;;;;;11.58;96.69;101645.94;5013901;28;20958;-47
2022/06/02 05:01:05;;;;;;;9.70;9.07;;;;;;;11.68;97.24;101651.81;5013630;28;20441;-43
2022/06/02 05:03:43;;;;;;;9.97;9.20;;;;;;;11.75;97.34;101657.31;5014194;28;20930;-44
2022/06/02 05:06:20;;;;;;;14.07;9.27;;;;;;;11.82;97.49;101649.41;5013203;28;20471;-45
2022/06/02 05:09:01;;;;;;;9.80;9.10;;;;;;;11.82;98.26;101652.91;5013804;28;20499;-43
2022/06/02 05:11:41;;;;;;;9.60;8.77;;;;;;;11.90;98.27;101649.31;5013352;28;20934;-42
2022/06/02 05:14:28;;;;;;;9.03;8.50;;;;;;;11.93;98.64;101654.28;5014021;28;20433;-49
2022/06/02 05:17:09;;;;;;;12.73;9.87;;;;;;;11.94;98.45;101659.47;5013093;28;20482;-45
2022/06/02 05:20:02;;;;;;;10.50;9.43;;;;;;;11.99;98.86;101649.03;5013361;28;20421;-47
2022/06/02 05:23:02;;;;;;;10.47;9.47;;;;;;;11.97;98.96;101659.09;5013127;28;20943;-45
2022/06/02 05:26:05;;;;;;;10.13;9.33;;;;;;;12.00;98.94;101663.25;5013428;28;20851;-48
2022/06/02 05:29:01;;;;;;;14.07;10.13;;;;;;;12.05;98.79;101668.88;5013297;28;20472;-43
2022/06/02 05:31:47;;;;;;;9.77;9.17;;;;;;;12.10;98.76;101675.31;5013211;28;20433;-44
2022/06/02 05:34:51;;;;;;;10.83;9.90;;;;;;;12.17;98.68;101672.75;5013241;28;20429;-44
2022/06/02 05:37:36;;;;;;;9.90;9.10;;;;;;;12.19;98.70;101676.06;5010806;28;20842;-43
2022/06/02 05:40:15;;;;;;;11.20;10.20;;;;;;;12.19;98.64;101676.88;5013280;28;20429;-44
2022/06/02 05:42:57;;;;;;;11.60;9.70;;;;;;;12.35;99.07;101672.38;5013103;28;20809;-48
2022/06/02 05:45:38;;;;;;;12.40;10.10;;;;;;;12.54;98.65;101675.31;5013215;28;20433;-44
2022/06/02 05:48:21;;;;;;;13.97;11.23;;;;;;;12.77;98.94;101676.00;5012458;28;20480;-44
2022/06/02 05:50:56;;;;;;;14.03;9.80;;;;;;;12.95;98.34;101680.09;5012716;28;20435;-46
2022/06/02 05:53:40;;;;;;;10.47;9.80;;;;;;;13.04;97.62;101673.63;5013115;28;20432;-47
2022/06/02 05:56:20;;;;;;;13.33;10.60;;;;;;;13.12;97.35;101687.75;5012627;28;20804;-45
2022/06/02 05:59:23;;;;;;;11.77;10.80;;;;;;;13.19;96.50;101685.97;5013001;28;20429;-46
2022/06/02 06:02:08;;;;;;;11.47;10.43;;;;;;;13.38;96.41;101689.84;5011042;28;20440;-46
2022/06/02 06:04:57;;;;;;;15.00;11.23;;;;;;;13.52;95.89;101696.16;5013080;28;20435;-45
2022/06/02 06:07:44;;;;;;;17.83;11.10;;;;;;;13.59;94.16;101692.50;5012293;28;20472;-44
2022/06/02 06:10:17;;;;;;;11.70;10.60;;;;;;;13.90;94.65;101694.81;5012719;28;20429;-47
2022/06/02 06:13:15;;;;;;;17.30;10.30;;;;;;;14.35;93.71;101697.03;5012813;28;20547;-43
2022/06/02 06:15:52;;;;;;;11.40;10.10;;;;;;;14.51;90.94;101697.72;5008807;28;20433;-50
2022/06/02 06:18:29;;;;;;;12.90;10.70;;;;;;;14.51;89.19;101706.59;5012429;28;20437;-48
2022/06/02 06:21:08;;;;;;;15.37;11.70;;;;;;;14.45;88.01;101710.09;5012655;28;20433;-46
2022/06/02 06:23:58;;;;;;;11.20;10.10;;;;;;;14.20;86.37;101714.22;5012560;28;20467;-49
2022/06/02 06:26:34;;;;;;;12.60;10.87;;;;;;;13.95;86.49;101716.50;5011715;28;20481;-45
2022/06/02 06:29:13;;;;;;;12.37;11.20;;;;;;;13.74;87.66;101720.06;5012623;28;20498;-44
2022/06/02 06:31:55;;;;;;;13.50;11.73;;;;;;;13.56;88.41;101716.22;5012064;28;20440;-44
2022/06/02 06:34:34;;;;;;;12.43;11.40;;;;;;;13.49;89.26;101728.72;5012236;28;20425;-44
2022/06/02 06:37:23;;;;;;;16.73;11.77;;;;;;;13.34;90.10;101738.66;5011825;28;20472;-46
2022/06/02 06:40:03;;;;;;;11.40;10.33;;;;;;;13.21;90.37;101731.31;5012411;28;20426;-44
2022/06/02 06:43:03;;;;;;;18.53;11.30;;;;;;;13.16;91.78;101737.25;5012037;28;20432;-47
2022/06/02 06:45:36;;;;;;;13.43;10.80;;;;;;;13.02;92.07;101730.03;5004309;28;20437;-44
2022/06/02 06:48:15;;;;;;;11.37;10.37;;;;;;;13.13;92.71;101734.94;5011510;28;20477;-47
2022/06/02 06:50:52;;;;;;;14.00;11.50;;;;;;;13.31;92.58;101731.84;5011983;28;20447;-47
2022/06/02 06:53:30;;;;;;;12.77;10.57;;;;;;;13.49;92.32;101742.09;5011989;28;20439;-46
2022/06/02 06:56:07;;;;;;;12.93;10.90;;;;;;;13.49;90.06;101742.94;5011867;28;20442;-46
2022/06/02 06:58:54;;;;;;;12.10;9.63;;;;;;;13.64;90.52;101740.19;5011971;28;20926;-43
2022/06/02 07:01:27;;;;;;;12.70;10.20;;;;;;;13.64;89.05;101738.34;5012571;28;20455;-46
2022/06/02 07:04:16;;;;;;;11.47;10.50;;;;;;;13.66;89.43;101748.84;5018372;28;20930;-44
2022/06/02 07:06:53;;;;;;;11.73;10.57;;;;;;;13.61;88.60;101746.78;5018107;28;20468;-46
2022/06/02 07:09:31;;;;;;;12.33;11.03;;;;;;;13.54;88.53;101748.53;5018480;28;20476;-45
2022/06/02 07:14:54;;;;;;;10.63;9.73;;;;;;;13.40;90.10;101759.31;5018667;28;20433;-45
2022/06/02 07:17:32;;;;;;;11.30;10.40;;;;;;;13.28;90.19;101754.47;5018270;28;20483;-45
2022/06/02 07:20:25;;;;;;;12.03;10.20;;;;;;;13.28;90.52;101764.34;5018290;28;20843;-45
2022/06/02 07:23:06;;;;;;;11.87;10.67;;;;;;;13.26;90.67;101771.75;5018280;28;20505;-46
2022/06/02 07:25:44;;;;;;;13.17;11.83;;;;;;;13.28;90.99;101764.34;5018242;28;20436;-43
2022/06/02 07:28:22;;;;;;;14.67;10.90;;;;;;;13.32;91.16;101765.63;4998449;28;20445;-44
2022/06/02 07:30:58;;;;;;;13.03;10.20;;;;;;;13.38;91.50;101772.91;4998386;28;20437;-47
2022/06/02 07:33:52;;;;;;;11.47;10.37;;;;;;;13.47;91.55;101766.41;4998695;28;20433;-43
2022/06/02 07:36:56;;;;;;;13.43;10.03;;;;;;;13.55;90.95;101773.50;4998163;28;20465;-43
2022/06/02 07:40:03;;;;;;;13.40;11.07;;;;;;;13.77;91.32;101775.13;4983807;28;20793;-44
2022/06/02 07:43:00;;;;;;;12.07;10.87;;;;;;;13.90;89.82;101775.28;4998362;28;20441;-44
2022/06/02 07:45:38;;;;;;;11.70;10.60;;;;;;;13.94;88.88;101775.72;4998367;28;20456;-44
2022/06/02 07:48:22;;;;;;;13.27;12.10;;;;;;;13.94;88.41;101781.09;4997875;28;20844;-44
2022/06/02 07:50:57;;;;;;;12.77;11.50;;;;;;;13.86;88.11;101787.41;4998385;28;20437;-46
2022/06/02 07:53:33;;;;;;;15.10;11.70;;;;;;;13.81;88.31;101789.84;4998486;28;20430;-44
2022/06/02 07:56:08;;;;;;;12.90;11.10;;;;;;;13.83;88.56;101793.97;4997771;28;20819;-44
2022/06/02 07:58:50;;;;;;;11.87;10.37;;;;;;;13.68;87.84;101801.25;4998503;28;20432;-45
2022/06/02 08:01:52;;;;;;;12.87;10.67;;;;;;;13.67;88.66;101796.94;4998385;28;20442;-44
2022/06/02 08:04:27;;;;;;;15.10;10.83;;;;;;;13.86;90.04;101811.53;4998229;28;20433;-45
2022/06/02 08:07:03;;;;;;;11.47;10.33;;;;;;;13.91;88.92;101806.44;4998018;28;20469;-44
2022/06/02 08:09:48;;;;;;;13.33;10.17;;;;;;;13.94;88.42;101805.22;4998204;28;20484;-46
2022/06/02 08:12:22;;;;;;;11.23;10.23;;;;;;;14.01;88.43;101816.84;4998134;28;20441;-45
2022/06/02 08:15:02;;;;;;;14.93;9.50;;;;;;;14.01;88.00;101811.47;4995272;28;20437;-46
2022/06/02 08:17:37;;;;;;;10.90;9.90;;;;;;;14.06;88.41;101819.78;4994727;28;20483;-47
2022/06/02 08:20:21;;;;;;;11.30;10.20;;;;;;;14.04;87.60;101824.47;4995177;28;20429;-47
2022/06/02 08:22:59;;;;;;;12.47;11.37;;;;;;;14.12;88.29;101827.03;4995039;28;20951;-45
2022/06/02 08:25:38;;;;;;;13.63;11.20;;;;;;;14.11;87.13;101828.06;4995223;28;20441;-44
2022/06/02 08:28:17;;;;;;;10.80;9.70;;;;;;;14.29;88.40;101826.56;4994595;28;20462;-46
2022/06/02 08:30:52;;;;;;;11.53;9.97;;;;;;;14.40;87.36;101833.28;4994657;28;20478;-45
2022/06/02 08:33:49;;;;;;;14.37;11.73;;;;;;;14.69;87.80;101837.63;4991746;28;21100;-46
2022/06/02 08:36:22;;;;;;;14.90;9.90;;;;;;;14.75;85.32;101834.16;4975063;28;20469;-48
2022/06/02 08:39:09;;;;;;;11.93;10.73;;;;;;;14.74;84.54;101838.69;4975360;28;20438;-45
2022/06/02 08:42:17;;;;;;;10.10;9.23;;;;;;;14.77;84.19;101845.50;4975254;28;20443;-48
2022/06/02 08:45:12;;;;;;;12.03;9.77;;;;;;;15.07;83.83;101846.09;4975419;28;20801;-45
2022/06/02 08:48:18;;;;;;;10.73;9.80;;;;;;;15.37;81.83;101847.47;4974561;28;20477;-47
2022/06/02 08:51:20;;;;;;;13.40;8.83;;;;;;;15.81;80.04;101844.31;4974973;28;20475;-45
2022/06/02 08:54:44;;;;;;;14.70;10.20;;;;;;;16.46;77.80;101844.34;4975161;28;20435;-47
2022/06/02 08:57:26;;;;;;;14.03;9.80;;;;;;;16.92;73.20;101855.09;4986289;28;20967;-45
2022/06/02 09:00:39;;;;;;;9.50;8.70;;;;;;;17.19;72.77;101855.84;4994322;28;20920;-48
2022/06/02 09:03:48;;;;;;;9.00;8.27;;;;;;;17.65;70.13;101851.06;4994669;28;20450;-46
2022/06/02 09:06:43;;;;;;;9.93;8.10;;;;;;;18.31;69.52;101844.41;4993796;28;20497;-47
2022/06/02 09:09:41;;;;;;;16.67;9.07;;;;;;;18.71;67.80;101840.28;4994317;28;20488;-45
2022/06/02 09:12:33;;;;;;;9.23;8.33;;;;;;;19.16;66.73;101849.78;4994162;28;20438;-47
2022/06/02 09:15:49;;;;;;;11.77;8.97;;;;;;;18.61;62.11;101864.28;4994212;28;20426;-47
2022/06/02 09:18:36;;;;;;;10.73;8.77;;;;;;;18.52;64.57;101858.34;4974616;28;20450;-47
2022/06/02 09:21:29;;;;;;;12.40;8.20;;;;;;;18.51;64.26;101864.00;4974346;28;20450;-49
2022/06/02 09:24:06;;;;;;;8.50;7.07;;;;;;;18.14;61.86;101857.59;4974659;28;20459;-47
2022/06/02 09:26:59;;;;;;;14.23;8.20;;;;;;;18.05;64.18;101865.16;4980380;28;20468;-46
2022/06/02 09:29:38;;;;;;;8.43;7.70;;;;;;;18.17;64.87;101862.56;4993753;28;20473;-46
2022/06/02 09:32:24;;;;;;;11.60;8.23;;;;;;;18.48;61.25;101864.41;5009659;28;20439;-45
2022/06/02 09:35:16;;;;;;;7.30;6.83;;;;;;;19.03;62.84;101859.91;5018762;28;20438;-44
2022/06/02 09:38:05;;;;;;;11.00;8.43;;;;;;;18.62;58.39;101869.47;5016264;28;20457;-44
2022/06/02 09:40:45;;;;;;;10.03;7.20;;;;;;;18.28;62.03;101890.75;5013125;28;20791;-47
2022/06/02 09:43:44;;;;;;;8.57;7.80;;;;;;;18.05;62.66;101894.00;5013317;28;20794;-44
2022/06/02 09:46:51;;;;;;;8.70;8.00;;;;;;;17.92;62.72;101886.81;5012625;28;20456;-44
2022/06/02 09:49:36;;;;;;;10.73;8.00;;;;;;;17.63;61.74;101909.81;5011878;28;20469;-45
2022/06/02 09:52:05;;;;;;;10.27;8.60;;;;;;;17.69;64.70;101902.72;5012904;28;20806;-44
2022/06/02 09:54:53;;;;;;;8.80;7.90;;;;;;;17.78;63.76;101903.28;5012882;28;20433;-47
2022/06/02 09:57:56;;;;;;;10.30;8.93;;;;;;;17.48;62.53;101903.81;5012544;28;20468;-46
2022/06/02 10:00:44;;;;;;;10.33;9.20;;;;;;;17.48;65.09;101911.09;5012664;28;20576;-44
2022/06/02 10:03:43;;;;;;;13.67;9.33;;;;;;;17.61;64.56;101908.38;5012797;28;20437;-44
2022/06/02 10:06:25;;;;;;;9.93;8.03;;;;;;;17.55;63.63;101918.16;5012502;28;20464;-46
2022/06/02 10:09:08;;;;;;;10.60;9.47;;;;;;;17.34;63.12;101920.28;5012760;28;20450;-45
2022/06/02 10:11:44;;;;;;;9.50;8.50;;;;;;;17.46;63.15;101919.41;5012240;28;20479;-45
2022/06/02 10:14:52;;;;;;;11.13;8.90;;;;;;;17.49;63.25;101915.44;5012746;28;20435;-44
2022/06/02 10:17:47;;;;;;;14.10;8.60;;;;;;;17.50;64.15;101917.91;5011781;28;20472;-44
2022/06/02 10:20:51;;;;;;;9.67;8.60;;;;;;;17.74;62.90;101919.09;5012371;28;20429;-48
2022/06/02 10:23:42;;;;;;;11.23;9.00;;;;;;;17.68;62.27;101922.66;5012439;28;20424;-45
2022/06/02 10:26:24;;;;;;;9.50;8.70;;;;;;;17.97;62.27;101929.34;4995871;28;20464;-46
2022/06/02 10:29:26;;;;;;;10.53;8.90;;;;;;;18.10;63.12;101921.16;5012529;28;20433;-46
2022/06/02 10:32:22;;;;;;;12.03;8.90;;;;;;;18.36;60.40;101923.69;4992577;28;20953;-44
2022/06/02 10:35:25;;;;;;;14.20;9.93;;;;;;;18.84;59.88;101918.53;4997356;28;20440;-48
2022/06/02 10:38:14;;;;;;;9.80;8.90;;;;;;;18.91;56.98;101918.47;5011027;28;20958;-48
2022/06/02 10:41:02;;;;;;;11.17;10.03;;;;;;;18.92;59.69;101931.78;5011810;28;20428;-44
2022/06/02 10:44:07;;;;;;;14.33;10.70;;;;;;;18.86;58.09;101926.41;5010170;28;20956;-45
2022/06/02 10:47:10;;;;;;;12.17;10.80;;;;;;;18.09;58.16;101935.72;5011615;28;20846;-44
2022/06/02 10:49:45;;;;;;;11.30;10.23;;;;;;;17.41;61.28;101945.34;5012143;28;20432;-49
2022/06/02 10:52:50;;;;;;;12.67;10.00;;;;;;;17.07;62.19;101947.31;5011922;28;20440;-46
2022/06/02 10:55:56;;;;;;;14.73;10.10;;;;;;;16.84;64.31;101949.63;5012170;28;20448;-47
2022/06/02 10:59:01;;;;;;;9.33;8.53;;;;;;;17.05;63.55;101949.34;5031622;28;20439;-47
2022/06/02 11:02:07;;;;;;;9.80;8.87;;;;;;;17.02;62.57;101951.66;5031436;28;20462;-46
2022/06/02 11:05:16;;;;;;;9.77;8.97;;;;;;;17.10;63.62;101948.75;4998765;28;20451;-46
2022/06/02 11:11:17;;;;;;;13.83;9.50;;;;;;;17.14;63.42;101950.78;5150615;27;20504;-45
2022/06/02 11:14:12;;;;;;;11.17;9.30;;;;;;;16.83;64.13;101958.72;5150751;27;20429;-51
2022/06/02 11:17:05;;;;;;;9.63;8.80;;;;;;;16.60;64.02;101950.25;5117248;27;20466;-46
2022/06/02 11:20:23;;;;;;;10.13;9.03;;;;;;;16.39;64.92;101961.16;5069051;28;20434;-44
2022/06/02 11:23:18;;;;;;;11.80;8.67;;;;;;;16.30;64.08;101954.31;5069095;28;20435;-47
2022/06/02 11:26:34;;;;;;;10.33;9.53;;;;;;;16.23;63.85;101961.53;5069295;28;20434;-46
2022/06/02 11:29:40;;;;;;;9.43;8.70;;;;;;;16.21;64.76;101974.38;5089080;28;20632;-47
2022/06/02 11:32:19;;;;;;;10.67;9.47;;;;;;;16.00;64.81;101978.88;5088985;28;20437;-47
2022/06/02 11:35:17;;;;;;;13.53;8.60;;;;;;;15.63;65.81;101981.19;5080508;28;20414;-45
2022/06/02 11:38:18;;;;;;;9.50;8.73;;;;;;;15.59;68.41;101982.66;5071486;28;20967;-47
2022/06/02 11:40:56;;;;;;;10.10;9.17;;;;;;;15.78;68.20;101980.03;5043304;28;20440;-47
2022/06/02 11:43:38;;;;;;;10.83;9.93;;;;;;;15.72;66.82;101980.00;5068681;28;20429;-45
2022/06/02 11:46:38;;;;;;;10.47;9.33;;;;;;;15.50;68.47;101987.34;5068094;28;20466;-49
2022/06/02 11:49:44;;;;;;;19.33;9.30;;;;;;;15.52;69.38;101987.97;5068371;28;20478;-47
2022/06/02 11:52:33;;;;;;;9.53;8.70;;;;;;;15.77;70.08;101991.81;5068018;28;20434;-46
2022/06/02 11:55:18;;;;;;;9.80;9.10;;;;;;;15.94;69.84;101985.06;5068320;28;20856;-49
2022/06/02 11:57:53;;;;;;;9.53;8.50;;;;;;;16.01;68.76;101990.44;5067459;28;20470;-45
2022/06/02 12:00:46;;;;;;;11.53;9.37;;;;;;;16.16;68.27;101983.03;5067924;28;20930;-50
2022/06/02 12:03:43;;;;;;;10.80;9.87;;;;;;;16.29;66.91;101987.63;5068226;28;20426;-47
2022/06/02 12:06:31;;;;;;;11.10;9.47;;;;;;;16.02;65.69;101998.34;5062768;28;20470;-44
2022/06/02 12:09:37;;;;;;;9.13;8.40;;;;;;;16.14;67.22;101997.75;5067691;28;20517;-47
2022/06/02 12:12:41;;;;;;;9.10;8.40;;;;;;;16.05;65.81;102002.47;5017658;28;20792;-47
2022/06/02 12:15:42;;;;;;;12.63;9.57;;;;;;;16.18;64.50;101996.31;5058347;28;20859;-45
2022/06/02 12:18:28;;;;;;;12.77;10.27;;;;;;;16.09;65.21;102009.13;5067469;28;20441;-45
2022/06/02 12:21:25;;;;;;;10.93;9.83;;;;;;;15.99;64.47;102006.81;5061986;28;20420;-46
2022/06/02 12:24:19;;;;;;;9.80;8.90;;;;;;;16.09;66.62;102019.06;5054344;28;20435;-45
2022/06/02 12:27:16;;;;;;;8.93;8.33;;;;;;;16.12;66.15;102011.41;5060872;28;20462;-47
2022/06/02 12:30:03;;;;;;;11.10;9.53;;;;;;;15.92;66.49;102019.41;5074331;28;20470;-46
2022/06/02 12:32:57;;;;;;;11.03;10.03;;;;;;;15.78;66.73;102022.22;5065859;28;20496;-48
2022/06/02 12:35:50;;;;;;;11.20;10.07;;;;;;;15.65;66.91;102027.56;5074142;28;20414;-48
2022/06/02 12:38:33;;;;;;;11.63;10.77;;;;;;;15.60;67.22;102030.81;5074151;28;20474;-47
2022/06/02 12:41:17;;;;;;;10.43;9.63;;;;;;;15.59;67.44;102031.84;5073934;28;20780;-45
2022/06/02 12:44:14;;;;;;;10.50;9.30;;;;;;;15.77;68.29;102025.97;5074303;28;20415;-45
2022/06/02 12:47:11;;;;;;;11.20;10.27;;;;;;;16.26;66.42;102031.13;5073466;28;20462;-44
2022/06/02 12:50:17;;;;;;;9.73;9.00;;;;;;;16.29;62.64;102033.41;5073707;28;20474;-46
2022/06/02 12:53:35;;;;;;;9.90;9.30;;;;;;;16.43;63.39;102043.16;5074016;28;20464;-48
2022/06/02 12:56:36;;;;;;;9.57;8.87;;;;;;;16.83;61.68;102027.94;5011099;28;20461;-51